createdAt,value
2018-10-19T00:00:35.281Z,98481.06
2018-10-19T00:03:04.093Z,98482.49
2018-10-19T00:05:32.983Z,98484.42
2018-10-19T00:08:01.690Z,98483.05
2018-10-19T00:10:30.507Z,98480.66
2018-10-19T00:12:59.278Z,98481.56
2018-10-19T00:15:28.098Z,98482.92
2018-10-19T00:17:56.850Z,98480.28
2018-10-19T00:20:25.658Z,98487.24
2018-10-19T00:22:54.532Z,98482.11
2018-10-19T00:25:23.342Z,98488.14
2018-10-19T00:27:52.082Z,98489.25
2018-10-19T00:30:20.834Z,98489.56
2018-10-19T00:32:49.495Z,98482.86
2018-10-19T00:35:18.293Z,98478.84
2018-10-19T00:37:47.065Z,98478.56
2018-10-19T00:40:15.925Z,98469.03
2018-10-19T00:42:44.690Z,98470.73
2018-10-19T00:45:13.769Z,98473.77
2018-10-19T00:47:42.512Z,98475.05
2018-10-19T00:50:11.374Z,98468.91
2018-10-19T00:52:40.146Z,98474.61
2018-10-19T00:55:09.081Z,98479.58
2018-10-19T00:57:37.842Z,98477.13
2018-10-19T01:00:06.604Z,98478.36
2018-10-19T01:02:35.360Z,98477.29
2018-10-19T01:05:04.290Z,98475.77
2018-10-19T01:07:33.042Z,98479.64
2018-10-19T01:10:01.962Z,98481.66
2018-10-19T01:12:30.732Z,98479.69
2018-10-19T01:15:00.220Z,98486.22
2018-10-19T01:17:28.966Z,98486.15
2018-10-19T01:19:57.843Z,98487.50
2018-10-19T01:22:26.618Z,98485.52
2018-10-19T01:24:55.560Z,98485.41
2018-10-19T01:27:24.279Z,98479.30
2018-10-19T01:29:53.082Z,98482.61
2018-10-19T01:32:21.864Z,98486.63
2018-10-19T01:34:50.654Z,98485.20
2018-10-19T01:37:19.430Z,98491.66
2018-10-19T01:39:48.234Z,98477.09
2018-10-19T01:42:17.059Z,98478.75
2018-10-19T01:44:45.867Z,98474.25
2018-10-19T01:47:14.654Z,98479.13
2018-10-19T01:49:43.458Z,98481.26
2018-10-19T01:52:12.275Z,98482.06
2018-10-19T01:54:41.231Z,98478.02
2018-10-19T01:57:10.043Z,98477.02
2018-10-19T01:59:38.916Z,98479.55
2018-10-19T02:02:07.654Z,98473.23
2018-10-19T02:04:36.558Z,98475.56
2018-10-19T02:07:05.542Z,98469.91
2018-10-19T02:09:34.327Z,98471.00
2018-10-19T02:12:03.314Z,98478.32
2018-10-19T02:14:32.170Z,98477.76
2018-10-19T02:17:01.009Z,98471.19
2018-10-19T02:19:29.835Z,98475.25
2018-10-19T02:21:58.619Z,98481.47
2018-10-19T02:24:27.379Z,98477.56
2018-10-19T02:26:56.228Z,98482.31
2018-10-19T02:29:25.002Z,98485.61
2018-10-19T02:31:53.744Z,98486.37
2018-10-19T02:34:22.584Z,98485.86
2018-10-19T02:36:51.494Z,98498.69
2018-10-19T02:39:20.419Z,98495.12
2018-10-19T02:41:49.228Z,98491.67
2018-10-19T02:44:17.983Z,98498.48
2018-10-19T02:46:46.646Z,98497.33
2018-10-19T02:49:15.483Z,98494.09
2018-10-19T02:51:44.287Z,98493.38
2018-10-19T02:54:13.046Z,98493.64
2018-10-19T02:56:41.765Z,98492.87
2018-10-19T02:59:10.574Z,98494.23
2018-10-19T03:01:39.186Z,98496.34
2018-10-19T03:04:07.982Z,98498.53
2018-10-19T03:06:36.767Z,98495.58
2018-10-19T03:09:08.694Z,98503.14
2018-10-19T03:11:37.454Z,98497.25
2018-10-19T03:14:06.653Z,98500.25
2018-10-19T03:16:35.413Z,98495.94
2018-10-19T03:19:04.222Z,98494.34
2018-10-19T03:21:32.922Z,98495.64
2018-10-19T03:24:01.749Z,98498.94
2018-10-19T03:26:30.611Z,98495.92
2018-10-19T03:28:59.510Z,98496.70
2018-10-19T03:31:28.168Z,98495.35
2018-10-19T03:33:56.845Z,98499.74
2018-10-19T03:36:25.734Z,98495.69
2018-10-19T03:38:54.889Z,98499.70
2018-10-19T03:41:23.642Z,98498.99
2018-10-19T03:43:52.415Z,98498.23
2018-10-19T03:46:21.193Z,98496.33
2018-10-19T03:48:49.899Z,98500.43
2018-10-19T03:51:18.899Z,98503.94
2018-10-19T03:53:47.590Z,98504.23
2018-10-19T03:56:16.321Z,98497.73
2018-10-19T03:58:45.047Z,98499.13
2018-10-19T04:01:13.819Z,98503.98
2018-10-19T04:03:42.733Z,98495.41
2018-10-19T04:06:11.385Z,98493.09
2018-10-19T04:08:40.187Z,98486.89
2018-10-19T04:11:09.158Z,98490.65
2018-10-19T04:13:37.911Z,98496.39
2018-10-19T04:16:06.698Z,98498.32
2018-10-19T04:18:35.558Z,98491.48
2018-10-19T04:21:04.417Z,98488.88
2018-10-19T04:23:33.298Z,98497.27
2018-10-19T04:26:02.030Z,98494.28
2018-10-19T04:28:30.835Z,98493.81
2018-10-19T04:30:59.699Z,98493.17
2018-10-19T04:33:28.558Z,98498.08
2018-10-19T04:35:57.332Z,98497.86
2018-10-19T04:38:26.142Z,98492.97
2018-10-19T04:40:54.992Z,98495.02
2018-10-19T04:43:23.882Z,98490.28
2018-10-19T04:45:52.753Z,98492.69
2018-10-19T04:48:21.609Z,98492.95
2018-10-19T04:50:50.311Z,98487.84
2018-10-19T04:53:19.372Z,98492.95
2018-10-19T04:55:48.104Z,98489.99
2018-10-19T04:58:17.019Z,98490.80
2018-10-19T05:00:45.829Z,98490.28
2018-10-19T05:03:14.697Z,98495.75
2018-10-19T05:05:43.844Z,98493.31
2018-10-19T05:08:12.668Z,98492.90
2018-10-19T05:10:41.350Z,98500.45
2018-10-19T05:13:10.338Z,98500.19
2018-10-19T05:15:39.056Z,98494.22
2018-10-19T05:18:07.890Z,98503.55
2018-10-19T05:20:36.674Z,98506.25
2018-10-19T05:23:06.094Z,98508.95
2018-10-19T05:25:34.806Z,98508.95
2018-10-19T05:28:03.647Z,98514.27
2018-10-19T05:30:32.530Z,98512.45
2018-10-19T05:33:01.379Z,98512.70
2018-10-19T05:35:30.166Z,98515.18
2018-10-19T05:37:59.041Z,98521.09
2018-10-19T05:40:27.886Z,98519.45
2018-10-19T05:42:56.694Z,98520.83
2018-10-19T05:45:25.431Z,98523.63
2018-10-19T05:47:54.253Z,98524.75
2018-10-19T05:50:23.163Z,98534.19
2018-10-19T05:52:51.999Z,98538.26
2018-10-19T05:55:20.697Z,98538.81
2018-10-19T05:57:49.483Z,98535.25
2018-10-19T06:00:18.306Z,98536.31
2018-10-19T06:02:47.058Z,98539.52
2018-10-19T06:05:15.992Z,98543.85
2018-10-19T06:07:44.759Z,98547.44
2018-10-19T06:10:13.454Z,98554.41
2018-10-19T06:12:42.999Z,98562.64
2018-10-19T06:15:11.817Z,98566.91
2018-10-19T06:17:40.682Z,98571.70
2018-10-19T06:20:09.881Z,98577.06
2018-10-19T06:22:38.582Z,98579.76
2018-10-19T06:25:07.427Z,98574.94
2018-10-19T06:27:36.409Z,98572.79
2018-10-19T06:30:06.142Z,98573.02
2018-10-19T06:32:34.855Z,98579.69
2018-10-19T06:35:03.752Z,98582.20
2018-10-19T06:37:32.532Z,98586.66
2018-10-19T06:40:01.328Z,98584.80
2018-10-19T06:42:30.148Z,98592.89
2018-10-19T06:44:59.002Z,98587.72
2018-10-19T06:47:27.840Z,98598.52
2018-10-19T06:49:56.584Z,98599.98
2018-10-19T06:52:25.353Z,98610.34
2018-10-19T06:54:54.162Z,98614.39
2018-10-19T06:57:23.034Z,98606.73
2018-10-19T06:59:51.694Z,98609.84
2018-10-19T07:02:20.514Z,98611.18
2018-10-19T07:04:49.330Z,98614.50
2018-10-19T07:07:18.254Z,98612.53
2018-10-19T07:09:47.023Z,98613.01
2018-10-19T07:12:15.841Z,98615.81
2018-10-19T07:14:44.523Z,98608.70
2018-10-19T07:17:13.364Z,98606.98
2018-10-19T07:19:42.225Z,98608.48
2018-10-19T07:22:11.106Z,98603.52
2018-10-19T07:24:39.845Z,98605.45
2018-10-19T07:27:08.585Z,98609.70
2018-10-19T07:29:37.498Z,98603.46
2018-10-19T07:32:06.291Z,98603.33
2018-10-19T07:34:34.935Z,98605.84
2018-10-19T07:37:03.760Z,98604.92
2018-10-19T07:39:32.435Z,98609.09
2018-10-19T07:42:01.224Z,98614.05
2018-10-19T07:44:30.525Z,98616.41
2018-10-19T07:46:59.512Z,98612.09
2018-10-19T07:49:28.480Z,98617.61
2018-10-19T07:51:57.498Z,98623.30
2018-10-19T07:54:26.390Z,98623.41
2018-10-19T07:56:55.214Z,98620.74
2018-10-19T07:59:23.975Z,98623.55
2018-10-19T08:01:52.821Z,98623.98
2018-10-19T08:04:21.659Z,98622.52
2018-10-19T08:06:50.420Z,98622.75
2018-10-19T08:09:19.186Z,98624.01
2018-10-19T08:11:48.003Z,98627.20
2018-10-19T08:14:17.042Z,98626.30
2018-10-19T08:16:46.018Z,98630.36
2018-10-19T08:19:14.922Z,98623.10
2018-10-19T08:21:43.982Z,98631.79
2018-10-19T08:24:12.742Z,98621.20
2018-10-19T08:26:41.786Z,98616.89
2018-10-19T08:29:10.702Z,98628.74
2018-10-19T08:31:39.539Z,98626.36
2018-10-19T08:34:08.333Z,98628.74
2018-10-19T08:36:37.287Z,98624.38
2018-10-19T08:39:08.391Z,98622.50
2018-10-19T08:41:37.223Z,98626.67
2018-10-19T08:44:05.983Z,98631.53
2018-10-19T08:46:39.880Z,98627.40
2018-10-19T08:49:10.561Z,98625.23
2018-10-19T08:51:40.203Z,98626.17
2018-10-19T08:54:09.386Z,98631.90
2018-10-19T08:56:38.498Z,98632.92
2018-10-19T08:59:07.339Z,98630.91
2018-10-19T09:01:36.218Z,98632.66
2018-10-19T09:04:05.447Z,98635.66
2018-10-19T09:06:34.318Z,98629.13
2018-10-19T09:09:03.388Z,98631.45
2018-10-19T09:11:32.278Z,98638.03
2018-10-19T09:14:01.133Z,98634.21
2018-10-19T09:16:29.988Z,98635.84
2018-10-19T09:18:58.681Z,98637.82
2018-10-19T09:21:27.615Z,98634.48
2018-10-19T09:23:56.546Z,98630.28
2018-10-19T09:26:25.386Z,98630.59
2018-10-19T09:28:54.268Z,98631.02
2018-10-19T09:31:23.379Z,98627.57
2018-10-19T09:33:52.154Z,98628.17
2018-10-19T09:36:21.057Z,98622.25
2018-10-19T09:38:49.786Z,98623.22
2018-10-19T09:41:18.606Z,98613.70
2018-10-19T09:43:47.399Z,98618.65
2018-10-19T09:46:16.145Z,98618.55
2018-10-19T09:48:45.027Z,98616.17
2018-10-19T09:51:13.889Z,98617.16
2018-10-19T09:53:42.666Z,98626.25
2018-10-19T09:56:11.864Z,98623.87
2018-10-19T09:58:40.570Z,98619.57
2018-10-19T10:01:14.695Z,98614.31
2018-10-19T10:03:43.555Z,98617.92
2018-10-19T10:06:12.424Z,98615.97
2018-10-19T10:08:41.293Z,98615.63
2018-10-19T10:11:10.243Z,98612.33
2018-10-19T10:13:39.183Z,98610.32
2018-10-19T10:16:08.106Z,98615.20
2018-10-19T10:18:37.334Z,98618.41
2018-10-19T10:21:06.855Z,98616.10
2018-10-19T10:23:35.779Z,98616.81
2018-10-19T10:26:04.657Z,98618.24
2018-10-19T10:28:33.389Z,98623.22
2018-10-19T10:31:02.569Z,98617.14
2018-10-19T10:33:31.438Z,98623.05
2018-10-19T10:36:00.451Z,98617.67
2018-10-19T10:38:29.641Z,98613.27
2018-10-19T10:40:58.514Z,98614.71
2018-10-19T10:43:27.358Z,98614.31
2018-10-19T10:45:56.434Z,98614.91
2018-10-19T10:48:25.518Z,98611.89
2018-10-19T10:50:55.314Z,98607.66
2018-10-19T10:53:24.235Z,98608.42
2018-10-19T10:55:53.335Z,98604.13
2018-10-19T10:58:22.070Z,98601.61
2018-10-19T11:00:50.914Z,98600.41
2018-10-19T11:03:19.636Z,98597.26
2018-10-19T11:05:49.078Z,98602.88
2018-10-19T11:08:17.926Z,98588.17
2018-10-19T11:10:47.050Z,98601.20
2018-10-19T11:13:15.916Z,98592.89
2018-10-19T11:15:44.746Z,98594.92
2018-10-19T11:18:13.614Z,98593.51
2018-10-19T11:20:42.490Z,98591.52
2018-10-19T11:23:11.199Z,98590.56
2018-10-19T11:25:40.059Z,98584.00
2018-10-19T11:28:08.858Z,98582.17
2018-10-19T11:30:37.782Z,98588.16
2018-10-19T11:33:06.760Z,98585.97
2018-10-19T11:35:35.767Z,98579.45
2018-10-19T11:38:04.903Z,98577.56
2018-10-19T11:40:36.846Z,98577.27
2018-10-19T11:43:06.203Z,98570.13
2018-10-19T11:45:36.183Z,98569.69
2018-10-19T11:48:05.059Z,98565.91
2018-10-19T11:50:34.014Z,98562.16
2018-10-19T11:53:02.900Z,98551.86
2018-10-19T11:57:59.970Z,98551.13
2018-10-19T12:00:28.775Z,98543.08
2018-10-19T12:02:57.660Z,98541.94
2018-10-19T12:05:26.443Z,98536.28
2018-10-19T12:07:55.277Z,98533.28
2018-10-19T12:10:24.139Z,98531.55
2018-10-19T12:12:53.112Z,98529.67
2018-10-19T12:15:21.818Z,98525.12
2018-10-19T12:17:50.705Z,98527.63
2018-10-19T12:20:20.014Z,98524.16
2018-10-19T12:22:48.692Z,98528.78
2018-10-19T12:25:18.091Z,98521.73
2018-10-19T12:27:46.838Z,98514.09
2018-10-19T12:30:15.780Z,98516.72
2018-10-19T12:32:44.573Z,98505.63
2018-10-19T12:35:14.501Z,98504.18
2018-10-19T12:37:43.196Z,98508.11
2018-10-19T12:40:12.499Z,98501.15
2018-10-19T12:42:41.346Z,98495.38
2018-10-19T12:45:21.159Z,98497.48
2018-10-19T12:47:49.862Z,98503.05
2018-10-19T12:50:18.714Z,98497.91
2018-10-19T12:52:47.467Z,98502.28
2018-10-19T12:55:16.326Z,98499.87
2018-10-19T12:57:45.031Z,98495.62
2018-10-19T13:00:14.088Z,98494.75
2018-10-19T13:02:42.914Z,98493.15
2018-10-19T13:05:11.643Z,98493.38
2018-10-19T13:07:40.752Z,98487.53
2018-10-19T13:10:09.778Z,98488.31
2018-10-19T13:12:38.462Z,98496.40
2018-10-19T13:15:07.476Z,98493.61
2018-10-19T13:17:36.155Z,98486.81
2018-10-19T13:20:04.968Z,98500.20
2018-10-19T13:22:33.854Z,98498.74
2018-10-19T13:25:02.730Z,98484.87
2018-10-19T13:27:31.718Z,98491.52
2018-10-19T13:30:00.560Z,98495.93
2018-10-19T13:32:29.290Z,98487.00
2018-10-19T13:34:58.228Z,98482.34
2018-10-19T13:37:27.075Z,98485.26
2018-10-19T13:39:55.799Z,98482.09
2018-10-19T13:42:24.635Z,98489.14
2018-10-19T13:44:53.370Z,98481.26
2018-10-19T13:47:22.250Z,98491.73
2018-10-19T13:49:57.815Z,98492.94
2018-10-19T13:52:26.651Z,98491.37
2018-10-19T13:54:55.497Z,98492.92
2018-10-19T13:57:24.342Z,98494.19
2018-10-19T13:59:53.178Z,98489.50
2018-10-19T14:02:22.055Z,98489.59
2018-10-19T14:04:51.027Z,98494.73
2018-10-19T14:07:19.734Z,98493.41
2018-10-19T14:09:48.456Z,98495.38
2018-10-19T14:12:17.311Z,98493.02
2018-10-19T14:14:46.116Z,98494.27
2018-10-19T14:17:15.133Z,98496.27
2018-10-19T14:19:43.979Z,98502.63
2018-10-19T14:22:12.823Z,98492.20
2018-10-19T14:24:41.696Z,98496.92
2018-10-19T14:27:10.529Z,98487.83
2018-10-19T14:29:39.311Z,98497.05
2018-10-19T14:32:08.014Z,98499.87
2018-10-19T14:34:36.728Z,98500.63
2018-10-19T14:37:05.603Z,98499.45
2018-10-19T14:39:34.290Z,98500.95
2018-10-19T14:42:04.797Z,98501.80
2018-10-19T14:44:33.646Z,98503.73
2018-10-19T14:47:02.348Z,98500.36
2018-10-19T14:49:31.226Z,98499.38
2018-10-19T14:52:00.003Z,98501.66
2018-10-19T14:54:28.813Z,98503.03
2018-10-19T14:56:57.720Z,98497.53
2018-10-19T14:59:26.474Z,98499.37
2018-10-19T15:01:55.244Z,98496.38
2018-10-19T15:04:24.465Z,98495.16
2018-10-19T15:06:53.140Z,98492.66
2018-10-19T15:09:22.012Z,98490.78
2018-10-19T15:11:50.732Z,98487.40
2018-10-19T15:14:19.515Z,98489.30
2018-10-19T15:16:48.254Z,98495.08
2018-10-19T15:19:17.088Z,98495.45
2018-10-19T15:21:45.867Z,98497.32
2018-10-19T15:24:15.040Z,98496.69
2018-10-19T15:26:43.791Z,98504.91
2018-10-19T15:29:12.773Z,98506.49
2018-10-19T15:31:41.431Z,98505.73
2018-10-19T15:34:10.247Z,98502.60
2018-10-19T15:36:39.170Z,98497.90
2018-10-19T15:39:10.540Z,98501.59
2018-10-19T15:41:39.388Z,98504.78
2018-10-19T15:44:08.347Z,98508.52
2018-10-19T15:46:37.159Z,98509.10
2018-10-19T15:49:06.150Z,98509.77
2018-10-19T15:51:34.962Z,98509.10
2018-10-19T15:54:04.047Z,98511.77
2018-10-19T15:56:33.244Z,98522.34
2018-10-19T15:59:02.126Z,98516.42
2018-10-19T16:01:30.789Z,98509.72
2018-10-19T16:03:59.706Z,98519.34
2018-10-19T16:06:28.592Z,98518.95
2018-10-19T16:08:57.321Z,98528.91
2018-10-19T16:11:26.120Z,98523.72
2018-10-19T16:13:54.871Z,98526.30
2018-10-19T16:16:23.719Z,98529.91
2018-10-19T16:18:52.787Z,98532.48
2018-10-19T16:21:21.666Z,98536.72
2018-10-19T16:23:50.475Z,98535.81
2018-10-19T16:26:19.241Z,98542.31
2018-10-19T16:28:48.106Z,98548.00
2018-10-19T16:31:16.982Z,98552.13
2018-10-19T16:33:45.702Z,98549.26
2018-10-19T16:36:14.499Z,98550.84
2018-10-19T16:38:43.146Z,98548.74
2018-10-19T16:41:12.186Z,98556.09
2018-10-19T16:43:40.919Z,98560.53
2018-10-19T16:46:09.849Z,98564.92
2018-10-19T16:48:38.797Z,98568.42
2018-10-19T16:51:07.516Z,98564.83
2018-10-19T16:53:36.317Z,98572.74
2018-10-19T16:56:05.426Z,98568.55
2018-10-19T17:01:02.599Z,98574.92
2018-10-19T17:03:31.375Z,98576.48
2018-10-19T17:06:00.364Z,98572.97
2018-10-19T17:08:29.143Z,98582.89
2018-10-19T17:10:57.918Z,98581.58
2018-10-19T17:13:26.743Z,98586.30
2018-10-19T17:15:55.508Z,98581.98
2018-10-19T17:18:24.364Z,98588.94
2018-10-19T17:20:53.252Z,98584.70
2018-10-19T17:23:22.100Z,98588.58
2018-10-19T17:25:50.905Z,98592.17
2018-10-19T17:28:19.877Z,98600.52
2018-10-19T17:30:48.654Z,98598.59
2018-10-19T17:33:17.726Z,98594.04
2018-10-19T17:35:46.398Z,98601.58
2018-10-19T17:38:15.139Z,98607.20
2018-10-19T17:40:43.886Z,98600.17
2018-10-19T17:43:12.678Z,98598.55
2018-10-19T17:45:41.363Z,98600.47
2018-10-19T17:48:10.245Z,98599.78
2018-10-19T17:50:38.906Z,98610.91
2018-10-19T17:53:07.686Z,98602.50
2018-10-19T17:55:36.418Z,98606.64
2018-10-19T17:58:05.277Z,98607.86
2018-10-19T18:00:34.274Z,98609.05
2018-10-19T18:03:03.251Z,98608.98
2018-10-19T18:05:32.040Z,98611.48
2018-10-19T18:08:00.790Z,98610.27
2018-10-19T18:10:29.886Z,98615.69
2018-10-19T18:12:58.947Z,98616.98
2018-10-19T18:15:28.000Z,98621.47
2018-10-19T18:17:56.766Z,98620.84
2018-10-19T18:20:25.602Z,98626.75
2018-10-19T18:22:54.632Z,98627.38
2018-10-19T18:25:23.606Z,98624.16
2018-10-19T18:27:52.337Z,98638.74
2018-10-19T18:30:21.248Z,98625.92
2018-10-19T18:32:50.070Z,98630.61
2018-10-19T18:35:18.906Z,98640.78
2018-10-19T18:37:47.655Z,98634.13
2018-10-19T18:40:16.522Z,98636.59
2018-10-19T18:42:45.498Z,98637.29
2018-10-19T18:45:14.607Z,98638.13
2018-10-19T18:47:43.379Z,98642.30
2018-10-19T18:50:12.142Z,98642.95
2018-10-19T18:52:41.115Z,98639.64
2018-10-19T18:55:09.939Z,98648.02
2018-10-19T18:57:38.941Z,98650.31
2018-10-19T19:00:09.976Z,98643.84
2018-10-19T19:02:38.801Z,98649.59
2018-10-19T19:05:07.825Z,98649.29
2018-10-19T19:07:36.650Z,98657.38
2018-10-19T19:10:13.014Z,98665.64
2018-10-19T19:12:41.816Z,98668.28
2018-10-19T19:15:11.388Z,98672.52
2018-10-19T19:17:40.632Z,98676.33
2018-10-19T19:20:14.885Z,98672.95
2018-10-19T19:22:44.047Z,98674.63
2018-10-19T19:25:18.098Z,98676.09
2018-10-19T19:27:47.036Z,98675.90
2018-10-19T19:30:15.715Z,98680.36
2018-10-19T19:32:49.806Z,98685.38
2018-10-19T19:35:18.823Z,98681.88
2018-10-19T19:37:47.569Z,98683.67
2018-10-19T19:40:16.435Z,98689.09
2018-10-19T19:42:50.974Z,98689.16
2018-10-19T19:45:20.012Z,98696.47
2018-10-19T19:47:53.914Z,98697.37
2018-10-19T19:50:22.758Z,98698.01
2018-10-19T19:52:51.549Z,98691.05
2018-10-19T19:55:20.291Z,98701.19
2018-10-19T19:57:49.254Z,98694.98
2018-10-19T20:00:18.067Z,98695.83
2018-10-19T20:02:46.862Z,98699.83
2018-10-19T20:05:15.849Z,98699.23
2018-10-19T20:07:44.810Z,98702.54
2018-10-19T20:10:13.706Z,98705.81
2018-10-19T20:12:42.454Z,98709.66
2018-10-19T20:15:11.556Z,98708.45
2018-10-19T20:17:40.530Z,98711.52
2018-10-19T20:20:10.873Z,98716.52
2018-10-19T20:22:40.381Z,98723.03
2018-10-19T20:25:10.355Z,98722.78
2018-10-19T20:27:39.823Z,98732.55
2018-10-19T20:30:12.404Z,98730.31
2018-10-19T20:32:41.367Z,98738.94
2018-10-19T20:35:10.365Z,98736.78
2018-10-19T20:37:39.308Z,98744.34
2018-10-19T20:40:08.256Z,98741.68
2018-10-19T20:42:37.139Z,98736.83
2018-10-19T20:45:06.372Z,98740.66
2018-10-19T20:47:35.213Z,98742.83
2018-10-19T20:50:04.276Z,98744.80
2018-10-19T20:52:33.170Z,98744.30
2018-10-19T20:55:01.982Z,98746.27
2018-10-19T20:57:30.900Z,98748.50
2018-10-19T20:59:59.871Z,98749.27
2018-10-19T21:02:28.837Z,98747.58
2018-10-19T21:04:57.714Z,98751.78
2018-10-19T21:07:26.453Z,98750.98
2018-10-19T21:09:55.395Z,98745.25
2018-10-19T21:12:24.155Z,98753.69
2018-10-19T21:14:52.919Z,98751.09
2018-10-19T21:17:21.734Z,98751.92
2018-10-19T21:19:50.509Z,98761.67
2018-10-19T21:22:19.361Z,98763.28
2018-10-19T21:24:48.429Z,98764.38
2018-10-19T21:27:17.278Z,98766.02
2018-10-19T21:29:46.386Z,98764.44
2018-10-19T21:32:15.250Z,98763.59
2018-10-19T21:34:43.995Z,98764.14
2018-10-19T21:37:12.766Z,98765.75
2018-10-19T21:39:41.522Z,98760.70
2018-10-19T21:42:10.434Z,98765.78
2018-10-19T21:44:40.357Z,98766.33
2018-10-19T21:47:09.454Z,98771.27
2018-10-19T21:49:38.171Z,98774.34
2018-10-19T21:52:07.025Z,98769.98
2018-10-19T21:54:35.802Z,98772.94
2018-10-19T21:57:04.674Z,98775.20
2018-10-19T21:59:33.590Z,98772.77
2018-10-19T22:02:02.441Z,98775.75
2018-10-19T22:04:31.344Z,98782.20
2018-10-19T22:07:00.222Z,98785.24
2018-10-19T22:09:29.049Z,98783.13
2018-10-19T22:11:57.755Z,98778.80
2018-10-19T22:14:26.518Z,98783.91
2018-10-19T22:16:55.387Z,98774.75
2018-10-19T22:19:24.145Z,98776.41
2018-10-19T22:21:52.960Z,98776.15
2018-10-19T22:24:21.879Z,98789.09
2018-10-19T22:26:50.613Z,98778.02
2018-10-19T22:29:19.475Z,98785.04
2018-10-19T22:31:48.374Z,98785.05
2018-10-19T22:34:17.234Z,98787.22
2018-10-19T22:36:46.954Z,98794.81
2018-10-19T22:39:15.745Z,98782.41
2018-10-19T22:41:44.663Z,98787.55
2018-10-19T22:44:13.535Z,98789.46
2018-10-19T22:46:42.447Z,98795.12
2018-10-19T22:49:11.242Z,98807.78
2018-10-19T22:51:40.014Z,98804.84
2018-10-19T22:54:08.803Z,98805.36
2018-10-19T22:56:37.680Z,98809.16
2018-10-19T22:59:06.964Z,98804.31
2018-10-19T23:04:25.882Z,98807.55
2018-10-19T23:06:54.644Z,98808.12
2018-10-19T23:09:23.624Z,98809.77
2018-10-19T23:11:52.398Z,98804.89
2018-10-19T23:14:21.211Z,98804.89
2018-10-19T23:16:49.906Z,98807.33
2018-10-19T23:19:18.591Z,98805.72
2018-10-19T23:21:47.295Z,98807.59
2018-10-19T23:24:16.003Z,98806.76
2018-10-19T23:26:44.737Z,98806.30
2018-10-19T23:29:13.597Z,98800.97
2018-10-19T23:31:42.370Z,98803.66
2018-10-19T23:34:10.910Z,98796.86
2018-10-19T23:36:39.598Z,98796.34
2018-10-19T23:39:09.914Z,98791.78
2018-10-19T23:41:39.037Z,98789.64
2018-10-19T23:44:07.822Z,98792.32
2018-10-19T23:46:36.714Z,98786.66
2018-10-19T23:49:05.855Z,98792.58
2018-10-19T23:51:34.546Z,98796.68
2018-10-19T23:54:03.477Z,98791.26
2018-10-19T23:56:32.273Z,98783.20
2018-10-19T23:59:01.088Z,98790.50
